createdAt,value
2022-12-12T00:01:04.560Z,2.10
2022-12-12T00:03:32.863Z,2.20
2022-12-12T00:06:03.404Z,1.60
2022-12-12T00:08:31.435Z,1.60
2022-12-12T00:11:00.805Z,1.87
2022-12-12T00:13:28.703Z,1.83
2022-12-12T00:15:56.635Z,4.67
2022-12-12T00:18:24.761Z,5.33
2022-12-12T00:20:53.275Z,3.90
2022-12-12T00:23:21.162Z,2.37
2022-12-12T00:25:55.060Z,2.20
2022-12-12T00:28:24.706Z,2.50
2022-12-12T00:30:52.945Z,1.90
2022-12-12T00:33:20.950Z,2.20
2022-12-12T00:35:51.055Z,2.00
2022-12-12T00:38:19.314Z,1.97
2022-12-12T00:40:47.380Z,1.90
2022-12-12T00:43:15.335Z,1.70
2022-12-12T00:45:44.544Z,1.70
2022-12-12T00:48:12.583Z,2.10
2022-12-12T00:50:40.450Z,2.13
2022-12-12T00:53:08.288Z,2.20
2022-12-12T00:55:36.254Z,1.70
2022-12-12T00:58:04.229Z,2.30
2022-12-12T01:00:32.619Z,2.07
2022-12-12T01:03:02.170Z,2.33
2022-12-12T01:05:31.259Z,2.30
2022-12-12T01:07:59.216Z,2.00
2022-12-12T01:10:27.233Z,2.30
2022-12-12T01:12:55.168Z,2.30
2022-12-12T01:15:23.361Z,3.30
2022-12-12T01:17:51.273Z,3.60
2022-12-12T01:20:23.892Z,2.93
2022-12-12T01:22:52.173Z,3.37
2022-12-12T01:25:20.993Z,3.17
2022-12-12T01:27:49.476Z,3.47
2022-12-12T01:30:20.457Z,3.53
2022-12-12T01:32:48.839Z,3.80
2022-12-12T01:35:16.674Z,3.73
2022-12-12T01:37:46.026Z,4.10
2022-12-12T01:40:17.318Z,4.40
2022-12-12T01:42:45.348Z,4.40
2022-12-12T01:45:46.265Z,4.20
2022-12-12T01:48:14.134Z,4.50
2022-12-12T01:50:44.336Z,4.63
2022-12-12T01:53:17.472Z,4.23
2022-12-12T01:55:46.685Z,4.43
2022-12-12T01:58:14.901Z,4.47
2022-12-12T02:00:43.284Z,4.17
2022-12-12T02:03:11.341Z,4.30
2022-12-12T02:05:43.411Z,4.00
2022-12-12T02:08:14.369Z,4.53
2022-12-12T02:10:42.265Z,4.40
2022-12-12T02:13:15.043Z,4.43
2022-12-12T02:15:46.403Z,4.50
2022-12-12T02:18:22.922Z,4.37
2022-12-12T02:21:01.854Z,4.17
2022-12-12T02:24:25.969Z,4.50
2022-12-12T02:27:23.090Z,4.17
2022-12-12T02:30:14.662Z,3.90
2022-12-12T02:32:54.830Z,4.73
2022-12-12T02:35:33.405Z,4.70
2022-12-12T02:38:14.707Z,4.77
2022-12-12T02:40:47.726Z,4.30
2022-12-12T02:43:26.362Z,3.87
2022-12-12T02:45:59.696Z,4.67
2022-12-12T02:48:34.137Z,4.63
2022-12-12T02:51:04.436Z,5.23
2022-12-12T02:53:32.498Z,5.00
2022-12-12T02:56:06.064Z,4.83
2022-12-12T02:58:37.354Z,4.77
2022-12-12T03:01:19.546Z,5.03
2022-12-12T03:04:30.185Z,5.27
2022-12-12T03:07:26.151Z,5.83
2022-12-12T03:10:04.184Z,4.83
2022-12-12T03:12:41.262Z,4.83
2022-12-12T03:15:18.790Z,5.23
2022-12-12T03:17:53.541Z,5.37
2022-12-12T03:20:27.876Z,5.40
2022-12-12T03:22:58.803Z,5.00
2022-12-12T03:25:34.594Z,4.93
2022-12-12T03:28:07.055Z,6.00
2022-12-12T03:30:43.993Z,5.80
2022-12-12T03:33:18.621Z,5.60
2022-12-12T03:35:54.030Z,5.50
2022-12-12T03:38:25.867Z,6.03
2022-12-12T03:40:56.708Z,5.50
2022-12-12T03:43:27.316Z,6.27
2022-12-12T03:46:00.423Z,7.20
2022-12-12T03:48:30.727Z,6.70
2022-12-12T03:51:04.566Z,6.57
2022-12-12T03:53:39.756Z,6.10
2022-12-12T03:56:13.766Z,5.87
2022-12-12T03:58:48.576Z,6.83
2022-12-12T04:01:20.063Z,6.07
2022-12-12T04:03:56.550Z,6.17
2022-12-12T04:06:32.869Z,6.83
2022-12-12T04:09:20.363Z,6.20
2022-12-12T04:12:24.658Z,5.90
2022-12-12T04:15:28.982Z,6.87
2022-12-12T04:18:08.459Z,6.10
2022-12-12T04:21:01.788Z,6.73
2022-12-12T04:23:38.255Z,6.97
2022-12-12T04:26:30.524Z,6.47
2022-12-12T04:29:08.534Z,6.03
2022-12-12T04:31:40.484Z,6.13
2022-12-12T04:34:14.769Z,6.27
2022-12-12T04:36:46.331Z,6.33
2022-12-12T04:39:18.669Z,6.90
2022-12-12T04:41:48.903Z,6.00
2022-12-12T04:44:19.128Z,8.33
2022-12-12T04:46:52.158Z,6.90
2022-12-12T04:49:23.733Z,6.00
2022-12-12T04:51:57.172Z,5.80
2022-12-12T04:54:33.119Z,6.33
2022-12-12T04:57:04.941Z,6.10
2022-12-12T04:59:49.788Z,5.73
2022-12-12T05:02:25.681Z,6.50
2022-12-12T05:04:58.683Z,6.63
2022-12-12T05:07:39.462Z,6.20
2022-12-12T05:10:12.905Z,6.73
2022-12-12T05:12:43.416Z,6.27
2022-12-12T05:15:12.288Z,6.37
2022-12-12T05:17:44.789Z,6.80
2022-12-12T05:20:15.311Z,6.37
2022-12-12T05:22:43.649Z,6.37
2022-12-12T05:25:14.069Z,5.87
2022-12-12T05:27:42.337Z,6.53
2022-12-12T05:30:11.529Z,6.70
2022-12-12T05:32:39.396Z,6.10
2022-12-12T05:35:09.282Z,6.13
2022-12-12T05:37:37.479Z,6.57
2022-12-12T05:40:10.695Z,5.60
2022-12-12T05:42:40.383Z,6.60
2022-12-12T05:45:09.917Z,7.23
2022-12-12T05:47:37.961Z,7.50
2022-12-12T05:50:06.769Z,6.83
2022-12-12T05:52:34.878Z,6.50
2022-12-12T05:55:02.835Z,6.80
2022-12-12T05:57:30.742Z,6.60
2022-12-12T05:59:59.964Z,6.70
2022-12-12T06:02:27.970Z,6.50
2022-12-12T06:04:55.866Z,6.07
2022-12-12T06:07:24.263Z,6.27
2022-12-12T06:09:52.251Z,6.60
2022-12-12T06:12:20.202Z,6.83
2022-12-12T06:14:48.533Z,6.40
2022-12-12T06:17:17.851Z,6.00
2022-12-12T06:19:45.750Z,6.67
2022-12-12T06:22:13.682Z,7.10
2022-12-12T06:24:41.993Z,6.23
2022-12-12T06:27:10.225Z,6.43
2022-12-12T06:29:38.247Z,5.97
2022-12-12T06:32:06.913Z,6.17
2022-12-12T06:34:36.251Z,5.87
2022-12-12T06:37:05.201Z,6.13
2022-12-12T06:39:33.167Z,6.23
2022-12-12T06:42:01.130Z,6.30
2022-12-12T06:44:29.110Z,6.50
2022-12-12T06:46:57.419Z,6.80
2022-12-12T06:49:25.554Z,6.17
2022-12-12T06:51:55.060Z,6.80
2022-12-12T06:54:23.732Z,6.73
2022-12-12T06:56:51.712Z,6.37
2022-12-12T06:59:19.721Z,6.23
2022-12-12T07:01:48.142Z,6.87
2022-12-12T07:04:16.801Z,6.07
2022-12-12T07:06:44.867Z,6.13
2022-12-12T07:09:14.315Z,6.43
2022-12-12T07:11:42.651Z,6.90
2022-12-12T07:14:13.616Z,7.37
2022-12-12T07:16:41.616Z,7.40
2022-12-12T07:19:11.132Z,7.87
2022-12-12T07:21:39.693Z,8.23
2022-12-12T07:24:07.908Z,8.07
2022-12-12T07:26:37.200Z,7.43
2022-12-12T07:29:05.420Z,8.87
2022-12-12T07:31:33.602Z,11.33
2022-12-12T07:34:01.474Z,9.70
2022-12-12T07:36:29.392Z,10.43
2022-12-12T07:38:57.312Z,9.60
2022-12-12T07:41:25.252Z,7.90
2022-12-12T07:43:55.292Z,8.13
2022-12-12T07:46:25.319Z,7.13
2022-12-12T07:48:54.875Z,8.40
2022-12-12T07:51:23.490Z,9.03
2022-12-12T07:53:51.445Z,7.80
2022-12-12T07:56:21.222Z,8.00
2022-12-12T07:58:49.822Z,8.40
2022-12-12T08:01:21.415Z,8.63
2022-12-12T08:03:49.847Z,7.87
2022-12-12T08:06:20.155Z,9.17
2022-12-12T08:08:49.826Z,8.87
2022-12-12T08:11:20.531Z,9.57
2022-12-12T08:13:48.923Z,8.80
2022-12-12T08:16:19.753Z,9.20
2022-12-12T08:18:47.977Z,9.30
2022-12-12T08:21:24.508Z,9.43
2022-12-12T08:23:53.682Z,10.07
2022-12-12T08:26:21.554Z,10.07
2022-12-12T08:28:50.325Z,8.10
2022-12-12T08:31:21.498Z,8.77
2022-12-12T08:33:51.415Z,8.97
2022-12-12T08:36:21.141Z,7.60
2022-12-12T08:38:49.110Z,10.97
2022-12-12T08:41:17.120Z,9.03
2022-12-12T08:43:45.842Z,9.83
2022-12-12T08:46:17.418Z,7.90
2022-12-12T08:48:48.072Z,8.37
2022-12-12T08:51:17.534Z,8.83
2022-12-12T08:53:46.073Z,8.73
2022-12-12T08:56:14.419Z,8.57
2022-12-12T08:58:42.432Z,8.17
2022-12-12T09:01:14.290Z,7.87
2022-12-12T09:03:42.152Z,8.00
2022-12-12T09:06:11.844Z,7.90
2022-12-12T09:08:40.264Z,7.83
2022-12-12T09:11:08.929Z,9.13
2022-12-12T09:13:37.325Z,9.87
2022-12-12T09:16:06.512Z,8.83
2022-12-12T09:18:34.773Z,8.63
2022-12-12T09:21:03.067Z,10.27
2022-12-12T09:23:32.939Z,14.80
2022-12-12T09:26:06.127Z,10.50
2022-12-12T09:28:34.655Z,8.63
2022-12-12T09:31:05.727Z,9.27
2022-12-12T09:33:34.209Z,8.73
2022-12-12T09:36:03.834Z,8.63
2022-12-12T09:38:33.106Z,9.27
2022-12-12T09:41:03.871Z,9.50
2022-12-12T09:43:34.837Z,15.13
2022-12-12T09:46:05.415Z,15.30
2022-12-12T09:48:39.870Z,13.83
2022-12-12T09:51:08.171Z,12.67
2022-12-12T09:53:38.056Z,11.03
2022-12-12T09:56:11.795Z,9.90
2022-12-12T09:58:51.391Z,10.47
2022-12-12T10:01:28.654Z,9.63
2022-12-12T10:04:07.659Z,11.20
2022-12-12T10:06:41.809Z,10.67
2022-12-12T10:09:27.315Z,9.93
2022-12-12T10:11:57.037Z,10.17
2022-12-12T10:14:30.674Z,10.13
2022-12-12T10:17:00.428Z,10.10
2022-12-12T10:19:31.313Z,10.43
2022-12-12T10:22:05.609Z,9.67
2022-12-12T10:24:40.775Z,8.87
2022-12-12T10:27:11.478Z,9.50
2022-12-12T10:29:41.899Z,9.37
2022-12-12T10:32:17.855Z,9.27
2022-12-12T10:35:00.242Z,9.33
2022-12-12T10:37:39.259Z,11.40
2022-12-12T10:40:32.680Z,14.87
2022-12-12T10:43:06.447Z,14.50
2022-12-12T10:46:08.827Z,14.37
2022-12-12T10:48:36.912Z,16.87
2022-12-12T10:51:07.105Z,15.50
2022-12-12T10:53:35.958Z,15.57
2022-12-12T10:56:09.592Z,13.80
2022-12-12T10:58:40.155Z,14.37
2022-12-12T11:01:13.565Z,14.10
2022-12-12T11:03:44.355Z,13.30
2022-12-12T11:06:16.566Z,12.77
2022-12-12T11:08:55.197Z,12.00
2022-12-12T11:11:25.734Z,12.37
2022-12-12T11:13:55.978Z,12.17
2022-12-12T11:16:25.977Z,11.67
2022-12-12T11:19:06.297Z,11.50
2022-12-12T11:21:36.339Z,11.93
2022-12-12T11:24:09.648Z,11.47
2022-12-12T11:26:46.847Z,11.87
2022-12-12T11:29:29.459Z,12.60
2022-12-12T11:32:00.475Z,12.67
2022-12-12T11:34:33.936Z,11.70
2022-12-12T11:39:51.939Z,12.20
2022-12-12T11:42:26.089Z,11.20
2022-12-12T11:45:03.200Z,12.17
2022-12-12T11:47:38.453Z,11.07
2022-12-12T11:50:45.882Z,11.67
2022-12-12T11:53:13.862Z,12.13
2022-12-12T11:56:01.988Z,11.97
2022-12-12T11:58:37.871Z,12.03
2022-12-12T12:01:13.791Z,13.03
2022-12-12T12:04:03.128Z,12.20
2022-12-12T12:06:43.428Z,12.77
2022-12-12T12:09:33.201Z,12.80
2022-12-12T12:12:08.487Z,12.83
2022-12-12T12:15:09.839Z,12.17
2022-12-12T12:17:57.976Z,11.63
2022-12-12T12:20:38.707Z,12.97
2022-12-12T12:23:20.646Z,15.13
2022-12-12T12:25:56.349Z,12.37
2022-12-12T12:29:02.050Z,12.43
2022-12-12T12:31:38.937Z,12.10
2022-12-12T12:34:15.600Z,12.40
2022-12-12T12:36:57.549Z,12.60
2022-12-12T12:39:41.640Z,11.87
2022-12-12T12:42:23.995Z,12.50
2022-12-12T12:44:56.512Z,11.50
2022-12-12T12:47:31.157Z,12.10
2022-12-12T12:50:04.302Z,13.43
2022-12-12T12:52:36.812Z,11.07
2022-12-12T12:55:14.436Z,11.27
2022-12-12T12:57:46.032Z,10.20
2022-12-12T13:00:18.093Z,10.43
2022-12-12T13:02:55.016Z,11.03
2022-12-12T13:05:28.014Z,10.23
2022-12-12T13:08:02.252Z,9.47
2022-12-12T13:10:31.962Z,9.57
2022-12-12T13:13:06.119Z,10.10
2022-12-12T13:15:37.931Z,10.03
2022-12-12T13:18:12.008Z,10.43
2022-12-12T13:20:42.627Z,11.00
2022-12-12T13:23:38.952Z,9.53
2022-12-12T13:26:14.185Z,9.30
2022-12-12T13:28:48.810Z,9.60
2022-12-12T13:31:59.469Z,10.67
2022-12-12T13:34:31.044Z,10.00
2022-12-12T13:36:59.928Z,9.80
2022-12-12T13:39:31.994Z,10.70
2022-12-12T13:42:03.098Z,10.67
2022-12-12T13:44:37.115Z,10.57
2022-12-12T13:47:06.217Z,11.23
2022-12-12T13:49:47.853Z,11.67
2022-12-12T13:52:24.893Z,10.87
2022-12-12T13:54:56.095Z,12.13
2022-12-12T13:57:31.142Z,12.47
2022-12-12T14:00:22.968Z,11.90
2022-12-12T14:03:02.036Z,12.13
2022-12-12T14:05:35.369Z,12.47
2022-12-12T14:08:20.021Z,13.40
2022-12-12T14:10:58.406Z,13.23
2022-12-12T14:13:42.962Z,14.33
2022-12-12T14:16:22.527Z,15.10
2022-12-12T14:19:23.020Z,14.90
2022-12-12T14:21:52.720Z,15.73
2022-12-12T14:24:48.521Z,14.30
2022-12-12T14:27:16.569Z,13.63
2022-12-12T14:29:45.564Z,12.53
2022-12-12T14:32:40.892Z,13.40
2022-12-12T14:35:28.024Z,11.90
2022-12-12T14:38:12.460Z,12.47
2022-12-12T14:40:46.116Z,11.67
2022-12-12T14:43:21.693Z,11.83
2022-12-12T14:45:56.908Z,10.70
2022-12-12T14:48:27.345Z,10.87
2022-12-12T14:51:00.321Z,11.07
2022-12-12T14:53:34.839Z,11.07
2022-12-12T14:56:05.388Z,11.27
2022-12-12T14:58:37.863Z,11.13
2022-12-12T15:01:07.780Z,10.23
2022-12-12T15:03:40.271Z,10.20
2022-12-12T15:06:29.199Z,9.50
2022-12-12T15:09:08.782Z,9.83
2022-12-12T15:11:38.689Z,9.23
2022-12-12T15:14:06.702Z,9.13
2022-12-12T15:16:47.992Z,7.10
2022-12-12T15:19:20.413Z,6.67
2022-12-12T15:21:49.541Z,6.83
2022-12-12T15:24:24.091Z,7.17
2022-12-12T15:26:54.888Z,7.17
2022-12-12T15:29:25.599Z,7.23
2022-12-12T15:32:03.117Z,6.83
2022-12-12T15:34:40.387Z,6.80
2022-12-12T15:37:22.586Z,6.30
2022-12-12T15:40:17.658Z,5.40
2022-12-12T15:42:48.706Z,5.50
2022-12-12T15:45:20.796Z,5.20
2022-12-12T15:47:48.803Z,5.70
2022-12-12T15:50:19.800Z,5.50
2022-12-12T15:52:59.049Z,4.73
2022-12-12T15:55:29.042Z,5.27
2022-12-12T15:57:57.247Z,5.20
2022-12-12T16:00:37.393Z,3.63
2022-12-12T16:03:21.165Z,4.13
2022-12-12T16:06:03.028Z,4.20
2022-12-12T16:08:40.573Z,3.73
2022-12-12T16:11:37.471Z,4.27
2022-12-12T16:14:06.988Z,4.43
2022-12-12T16:16:38.446Z,3.43
2022-12-12T16:19:15.647Z,4.67
2022-12-12T16:21:46.307Z,3.57
2022-12-12T16:24:23.039Z,3.20
2022-12-12T16:26:52.620Z,3.27
2022-12-12T16:29:20.510Z,3.57
2022-12-12T16:31:49.688Z,3.60
2022-12-12T16:34:17.922Z,3.63
2022-12-12T16:36:45.828Z,4.17
2022-12-12T16:39:14.050Z,3.93
2022-12-12T16:41:42.168Z,4.23
2022-12-12T16:44:11.426Z,4.73
2022-12-12T16:46:39.313Z,4.03
2022-12-12T16:49:15.090Z,3.80
2022-12-12T16:51:43.271Z,4.10
2022-12-12T16:54:16.910Z,4.07
2022-12-12T16:56:50.482Z,4.07
2022-12-12T16:59:19.837Z,3.60
2022-12-12T17:01:47.784Z,4.10
2022-12-12T17:04:23.051Z,4.63
2022-12-12T17:06:51.528Z,4.87
2022-12-12T17:09:19.853Z,3.83
2022-12-12T17:11:48.269Z,3.03
2022-12-12T17:14:21.613Z,3.77
2022-12-12T17:16:49.663Z,3.27
2022-12-12T17:19:17.941Z,2.83
2022-12-12T17:21:45.830Z,3.50
2022-12-12T17:24:13.982Z,2.33
2022-12-12T17:26:41.929Z,2.73
2022-12-12T17:29:10.104Z,2.80
2022-12-12T17:31:39.532Z,2.57
2022-12-12T17:34:07.554Z,2.87
2022-12-12T17:36:35.517Z,2.00
2022-12-12T17:39:04.311Z,2.47
2022-12-12T17:41:32.317Z,2.20
2022-12-12T17:44:00.260Z,2.10
2022-12-12T17:46:28.824Z,2.33
2022-12-12T17:49:01.889Z,2.07
2022-12-12T17:51:30.342Z,1.87
2022-12-12T17:54:00.134Z,2.20
2022-12-12T17:56:28.482Z,2.20
2022-12-12T17:58:57.002Z,1.90
2022-12-12T18:01:27.720Z,2.10
2022-12-12T18:03:57.701Z,1.33
2022-12-12T18:06:26.755Z,1.57
2022-12-12T18:08:56.830Z,1.90
2022-12-12T18:11:27.951Z,2.20
2022-12-12T18:13:57.889Z,2.00
2022-12-12T18:16:26.583Z,2.10
2022-12-12T18:18:55.843Z,2.10
2022-12-12T18:24:18.354Z,2.23
2022-12-12T18:26:47.752Z,2.10
2022-12-12T18:29:15.756Z,1.90
2022-12-12T18:31:43.771Z,1.60
2022-12-12T18:34:11.766Z,2.30
2022-12-12T18:36:41.138Z,2.30
2022-12-12T18:39:09.237Z,2.30
2022-12-12T18:41:37.959Z,2.20
2022-12-12T18:44:07.398Z,2.33
2022-12-12T18:46:42.276Z,1.80
2022-12-12T18:49:13.849Z,2.33
2022-12-12T18:51:43.491Z,1.90
2022-12-12T18:54:15.244Z,2.60
2022-12-12T18:56:44.698Z,2.10
2022-12-12T18:59:12.773Z,2.20
2022-12-12T19:01:41.223Z,2.00
2022-12-12T19:04:14.192Z,2.43
2022-12-12T19:06:45.610Z,1.63
2022-12-12T19:09:16.355Z,1.80
2022-12-12T19:11:45.134Z,1.90
2022-12-12T19:14:21.022Z,2.00
2022-12-12T19:16:49.380Z,2.20
2022-12-12T19:19:20.228Z,1.87
2022-12-12T19:21:49.893Z,2.30
2022-12-12T19:24:17.837Z,2.10
2022-12-12T19:26:46.499Z,1.73
2022-12-12T19:29:19.108Z,2.30
2022-12-12T19:31:47.355Z,1.97
2022-12-12T19:34:16.820Z,1.93
2022-12-12T19:36:45.418Z,2.20
2022-12-12T19:39:17.749Z,2.27
2022-12-12T19:41:46.121Z,2.20
2022-12-12T19:44:15.013Z,2.30
2022-12-12T19:46:46.198Z,2.50
2022-12-12T19:49:16.206Z,1.87
2022-12-12T19:51:45.902Z,2.20
2022-12-12T19:54:17.679Z,2.57
2022-12-12T19:56:46.682Z,2.60
2022-12-12T19:59:16.837Z,2.50
2022-12-12T20:01:45.182Z,2.73
2022-12-12T20:04:16.474Z,2.57
2022-12-12T20:06:46.241Z,2.47
2022-12-12T20:09:17.695Z,2.60
2022-12-12T20:11:46.162Z,2.80
2022-12-12T20:14:15.374Z,2.30
2022-12-12T20:16:43.777Z,3.20
2022-12-12T20:19:12.739Z,2.57
2022-12-12T20:22:00.207Z,2.40
2022-12-12T20:24:32.102Z,3.70
2022-12-12T20:27:02.991Z,3.67
2022-12-12T20:29:31.273Z,3.47
2022-12-12T20:32:01.315Z,3.43
2022-12-12T20:34:30.204Z,3.17
2022-12-12T20:36:58.787Z,2.97
2022-12-12T20:39:26.864Z,3.37
2022-12-12T20:41:57.093Z,2.70
2022-12-12T20:44:25.649Z,3.23
2022-12-12T20:46:54.249Z,3.07
2022-12-12T20:49:24.705Z,2.37
2022-12-12T20:51:56.547Z,2.80
2022-12-12T20:54:25.675Z,3.67
2022-12-12T20:56:54.499Z,2.80
2022-12-12T20:59:24.713Z,2.73
2022-12-12T21:01:53.224Z,3.30
2022-12-12T21:04:21.956Z,3.77
2022-12-12T21:06:51.435Z,5.53
2022-12-12T21:09:25.348Z,4.03
2022-12-12T21:11:54.517Z,4.03
2022-12-12T21:14:25.597Z,3.50
2022-12-12T21:16:53.844Z,3.37
2022-12-12T21:19:23.284Z,3.50
2022-12-12T21:21:51.996Z,2.77
2022-12-12T21:24:21.067Z,2.97
2022-12-12T21:26:49.284Z,2.90
2022-12-12T21:29:17.586Z,2.20
2022-12-12T21:31:51.694Z,3.30
2022-12-12T21:34:21.362Z,3.53
2022-12-12T21:36:52.333Z,2.53
2022-12-12T21:39:21.948Z,3.23
2022-12-12T21:41:51.274Z,2.40
2022-12-12T21:44:19.408Z,2.37
2022-12-12T21:46:48.948Z,2.97
2022-12-12T21:49:30.969Z,2.00
2022-12-12T21:52:01.103Z,3.20
2022-12-12T21:54:30.534Z,2.57
2022-12-12T21:56:59.455Z,3.00
2022-12-12T21:59:27.965Z,2.10
2022-12-12T22:01:59.977Z,2.90
2022-12-12T22:04:28.213Z,2.10
2022-12-12T22:06:57.368Z,3.53
2022-12-12T22:09:26.467Z,2.50
2022-12-12T22:12:03.505Z,2.83
2022-12-12T22:14:32.590Z,2.77
2022-12-12T22:17:02.226Z,2.67
2022-12-12T22:19:30.112Z,2.53
2022-12-12T22:21:58.055Z,2.90
2022-12-12T22:24:26.593Z,2.70
2022-12-12T22:26:54.426Z,2.73
2022-12-12T22:29:22.337Z,2.77
2022-12-12T22:31:52.483Z,3.33
2022-12-12T22:34:24.320Z,2.87
2022-12-12T22:36:52.676Z,3.27
2022-12-12T22:39:23.407Z,3.23
2022-12-12T22:41:51.657Z,2.50
2022-12-12T22:44:21.287Z,2.17
2022-12-12T22:46:51.064Z,3.30
2022-12-12T22:49:22.668Z,1.80
2022-12-12T22:51:51.119Z,3.17
2022-12-12T22:54:19.911Z,2.60
2022-12-12T22:56:47.788Z,3.00
2022-12-12T22:59:15.841Z,1.90
2022-12-12T23:01:43.996Z,2.47
2022-12-12T23:04:14.515Z,2.10
2022-12-12T23:06:44.302Z,2.27
2022-12-12T23:09:15.876Z,2.00
2022-12-12T23:11:44.864Z,2.43
2022-12-12T23:14:15.410Z,2.77
2022-12-12T23:16:43.799Z,2.37
2022-12-12T23:19:12.652Z,1.77
2022-12-12T23:21:40.570Z,2.50
2022-12-12T23:24:10.601Z,2.10
2022-12-12T23:26:39.260Z,1.53
2022-12-12T23:29:09.506Z,2.60
2022-12-12T23:31:39.039Z,2.63
2022-12-12T23:34:10.585Z,3.30
2022-12-12T23:36:39.058Z,2.43
2022-12-12T23:39:09.450Z,1.83
2022-12-12T23:41:37.358Z,2.17
2022-12-12T23:44:06.226Z,2.20
2022-12-12T23:46:36.025Z,2.30
2022-12-12T23:49:07.148Z,2.50
2022-12-12T23:51:37.403Z,2.13
2022-12-12T23:54:07.169Z,1.80
2022-12-12T23:56:36.851Z,2.00
2022-12-12T23:59:04.923Z,2.20
